createdAt,value
2022-10-29T00:01:01.358Z,6.43
2022-10-29T00:06:06.486Z,5.72
2022-10-29T00:11:09.562Z,5.47
2022-10-29T00:16:11.729Z,5.63
2022-10-29T00:21:11.951Z,5.28
2022-10-29T00:26:08.993Z,5.22
2022-10-29T00:31:09.672Z,5.45
2022-10-29T00:36:09.344Z,4.65
2022-10-29T00:41:08.045Z,5.32
2022-10-29T00:46:14.001Z,5.28
2022-10-29T00:51:13.467Z,4.43
2022-10-29T00:56:11.168Z,6.00
2022-10-29T01:01:07.928Z,5.78
2022-10-29T01:06:05.228Z,6.80
2022-10-29T01:11:26.370Z,5.23
2022-10-29T01:17:07.308Z,5.90
2022-10-29T01:22:16.488Z,5.72
2022-10-29T01:27:43.697Z,7.28
2022-10-29T01:33:12.467Z,4.77
2022-10-29T01:38:22.883Z,6.28
2022-10-29T01:43:27.419Z,6.50
2022-10-29T01:48:33.082Z,6.10
2022-10-29T01:53:31.532Z,6.07
2022-10-29T02:03:53.462Z,6.85
2022-10-29T02:09:28.083Z,6.90
2022-10-29T02:14:33.773Z,6.35
2022-10-29T02:19:35.696Z,5.80
2022-10-29T02:24:32.015Z,6.18
2022-10-29T02:29:28.319Z,6.18
2022-10-29T02:34:24.777Z,5.57
2022-10-29T02:39:21.135Z,5.18
2022-10-29T02:44:17.492Z,7.18
2022-10-29T02:49:13.890Z,6.13
2022-10-29T02:54:10.286Z,6.32
2022-10-29T02:59:09.233Z,6.72
2022-10-29T03:04:08.101Z,6.65
2022-10-29T03:09:04.834Z,6.95
2022-10-29T03:14:01.271Z,7.05
2022-10-29T03:18:57.643Z,5.95
2022-10-29T03:23:54.055Z,5.65
2022-10-29T03:28:50.575Z,5.32
2022-10-29T03:33:46.992Z,5.85
2022-10-29T03:38:43.306Z,6.95
2022-10-29T03:43:40.006Z,6.43
2022-10-29T03:48:36.397Z,7.18
2022-10-29T03:53:34.738Z,7.00
2022-10-29T03:58:31.108Z,7.93
2022-10-29T04:03:29.059Z,6.38
2022-10-29T04:08:25.957Z,6.65
2022-10-29T04:13:22.466Z,7.30
2022-10-29T04:18:18.783Z,5.85
2022-10-29T04:26:42.155Z,6.45
2022-10-29T04:28:43.476Z,5.50
2022-10-29T04:33:40.404Z,7.28
2022-10-29T04:38:36.752Z,8.50
2022-10-29T04:43:33.088Z,8.13
2022-10-29T04:48:29.728Z,8.63
2022-10-29T04:53:26.054Z,9.20
2022-10-29T04:58:22.398Z,10.30
2022-10-29T05:03:18.729Z,10.07
2022-10-29T05:08:15.311Z,9.68
2022-10-29T05:13:12.438Z,9.57
2022-10-29T05:18:10.230Z,9.38
2022-10-29T05:23:08.525Z,10.25
2022-10-29T05:33:09.067Z,10.70
2022-10-29T05:38:06.025Z,9.90
2022-10-29T05:43:02.481Z,9.60
2022-10-29T05:48:01.419Z,10.27
2022-10-29T05:53:00.277Z,10.23
2022-10-29T05:57:58.116Z,9.35
2022-10-29T06:02:55.344Z,10.55
2022-10-29T06:08:00.224Z,9.05
2022-10-29T06:12:56.919Z,9.52
2022-10-29T06:17:53.586Z,8.80
2022-10-29T06:22:57.908Z,8.35
2022-10-29T06:28:01.223Z,8.25
2022-10-29T06:32:58.176Z,9.63
2022-10-29T06:37:56.198Z,9.23
2022-10-29T06:47:59.531Z,8.65
2022-10-29T06:53:00.794Z,8.68
2022-10-29T06:58:14.213Z,10.07
2022-10-29T07:03:15.421Z,8.52
2022-10-29T07:08:12.512Z,8.20
2022-10-29T07:13:09.586Z,9.88
2022-10-29T07:18:08.131Z,9.50
2022-10-29T07:23:04.913Z,9.45
2022-10-29T07:28:16.423Z,9.50
2022-10-29T07:33:12.832Z,9.85
2022-10-29T07:38:11.480Z,8.52
2022-10-29T07:43:08.899Z,9.18
2022-10-29T07:48:09.681Z,8.65
2022-10-29T07:53:08.095Z,8.05
2022-10-29T07:58:12.948Z,7.45
2022-10-29T08:03:11.601Z,6.50
2022-10-29T08:08:08.446Z,7.22
2022-10-29T08:13:06.017Z,8.30
2022-10-29T08:18:04.780Z,7.20
2022-10-29T08:23:01.824Z,7.20
2022-10-29T08:28:00.303Z,7.10
2022-10-29T08:32:57.407Z,7.75
2022-10-29T08:37:54.109Z,5.97
2022-10-29T08:43:18.513Z,7.75
2022-10-29T08:48:36.676Z,6.07
2022-10-29T08:53:54.133Z,6.97
2022-10-29T08:59:11.728Z,6.00
2022-10-29T09:04:21.878Z,5.80
2022-10-29T09:09:36.787Z,6.80
2022-10-29T09:15:01.222Z,6.70
2022-10-29T09:20:25.499Z,5.97
2022-10-29T09:25:31.937Z,6.22
2022-10-29T09:30:31.375Z,5.30
2022-10-29T09:35:38.432Z,5.55
2022-10-29T09:40:38.137Z,5.82
2022-10-29T09:45:48.508Z,6.53
2022-10-29T09:50:59.234Z,6.13
2022-10-29T09:55:55.744Z,5.25
2022-10-29T10:00:53.777Z,4.63
2022-10-29T10:06:05.762Z,6.00
2022-10-29T10:11:05.729Z,6.15
2022-10-29T10:16:04.462Z,5.30
2022-10-29T10:21:10.422Z,6.10
2022-10-29T10:26:26.591Z,4.40
2022-10-29T10:31:22.947Z,4.45
2022-10-29T10:36:24.956Z,4.75
2022-10-29T10:41:42.753Z,4.20
2022-10-29T10:46:42.794Z,4.60
2022-10-29T10:51:43.982Z,5.13
2022-10-29T10:57:12.841Z,4.97
2022-10-29T11:02:22.188Z,4.68
2022-10-29T11:07:19.162Z,4.75
2022-10-29T11:12:32.553Z,4.97
2022-10-29T11:17:35.586Z,4.55
2022-10-29T11:22:52.798Z,6.72
2022-10-29T11:33:31.655Z,4.72
2022-10-29T11:38:33.672Z,4.93
2022-10-29T11:43:31.256Z,4.15
2022-10-29T11:48:40.383Z,3.20
2022-10-29T11:53:58.166Z,3.28
2022-10-29T11:59:04.695Z,3.72
2022-10-29T12:04:14.870Z,4.03
2022-10-29T12:09:46.581Z,3.25
2022-10-29T12:14:51.915Z,3.30
2022-10-29T12:20:10.568Z,2.70
2022-10-29T12:25:18.923Z,3.55
2022-10-29T12:30:18.145Z,3.33
2022-10-29T12:35:28.662Z,2.75
2022-10-29T12:40:29.912Z,3.45
2022-10-29T12:45:43.428Z,2.90
2022-10-29T12:51:11.098Z,2.63
2022-10-29T12:56:08.822Z,2.58
2022-10-29T13:01:05.383Z,3.55
2022-10-29T13:06:40.076Z,2.97
2022-10-29T13:12:04.535Z,3.25
2022-10-29T13:17:04.061Z,3.30
2022-10-29T13:22:25.131Z,3.25
2022-10-29T13:27:21.469Z,3.58
2022-10-29T13:32:37.509Z,3.00
2022-10-29T13:37:50.812Z,3.13
2022-10-29T13:42:56.643Z,3.47
2022-10-29T13:48:00.365Z,3.35
2022-10-29T13:53:00.678Z,3.97
2022-10-29T13:58:06.414Z,3.40
2022-10-29T14:03:20.760Z,2.97
2022-10-29T14:08:24.327Z,3.25
2022-10-29T14:13:33.926Z,3.03
2022-10-29T14:18:32.568Z,3.08
2022-10-29T14:23:31.095Z,2.60
2022-10-29T14:28:31.811Z,3.10
2022-10-29T14:33:31.394Z,2.88
2022-10-29T14:38:36.622Z,3.25
2022-10-29T14:43:34.901Z,2.88
2022-10-29T14:48:31.349Z,2.83
2022-10-29T14:53:32.446Z,3.87
2022-10-29T14:58:33.673Z,4.32
2022-10-29T15:03:33.439Z,2.80
2022-10-29T15:08:34.207Z,3.75
2022-10-29T15:13:33.984Z,4.10
2022-10-29T15:18:32.171Z,3.85
2022-10-29T15:23:35.384Z,2.33
2022-10-29T15:28:38.860Z,2.95
2022-10-29T15:33:37.049Z,3.50
2022-10-29T15:38:36.428Z,3.60
2022-10-29T15:43:32.728Z,4.22
2022-10-29T15:48:36.448Z,3.60
2022-10-29T15:53:32.848Z,3.35
2022-10-29T15:58:29.432Z,3.53
2022-10-29T16:03:27.132Z,4.30
2022-10-29T16:08:28.504Z,3.50
2022-10-29T16:13:26.918Z,3.67
2022-10-29T16:18:23.317Z,3.53
2022-10-29T16:23:19.636Z,4.35
2022-10-29T16:28:16.022Z,4.25
2022-10-29T16:33:12.507Z,3.92
2022-10-29T16:38:09.004Z,3.85
2022-10-29T16:43:05.581Z,3.92
2022-10-29T16:48:02.393Z,4.28
2022-10-29T16:53:06.087Z,3.97
2022-10-29T16:58:02.786Z,4.15
2022-10-29T17:03:03.592Z,4.40
2022-10-29T17:08:05.197Z,5.15
2022-10-29T17:13:01.768Z,4.00
2022-10-29T17:17:58.394Z,3.95
2022-10-29T17:22:55.127Z,4.90
2022-10-29T17:27:51.509Z,5.13
2022-10-29T17:32:47.832Z,4.05
2022-10-29T17:37:48.083Z,5.75
2022-10-29T17:42:44.390Z,4.20
2022-10-29T17:52:41.979Z,3.95
2022-10-29T17:57:38.389Z,4.57
2022-10-29T18:02:34.760Z,4.35
2022-10-29T18:07:31.185Z,3.90
2022-10-29T18:12:27.550Z,3.75
2022-10-29T18:17:24.042Z,3.97
2022-10-29T18:22:20.361Z,3.97
2022-10-29T18:27:16.718Z,3.92
2022-10-29T18:32:13.025Z,3.50
2022-10-29T18:37:09.449Z,3.13
2022-10-29T18:42:06.162Z,3.50
2022-10-29T18:47:02.675Z,2.95
2022-10-29T18:51:59.004Z,4.00
2022-10-29T18:56:55.435Z,3.78
2022-10-29T19:01:51.832Z,3.60
2022-10-29T19:06:48.345Z,3.90
2022-10-29T19:11:44.980Z,3.85
2022-10-29T19:16:41.506Z,3.88
2022-10-29T19:21:38.881Z,3.00
2022-10-29T19:26:36.322Z,3.22
2022-10-29T19:31:34.031Z,3.60
2022-10-29T19:36:30.759Z,4.55
2022-10-29T19:41:27.600Z,4.00
2022-10-29T19:46:24.136Z,3.42
2022-10-29T19:51:21.344Z,3.13
2022-10-29T19:56:18.510Z,3.43
2022-10-29T20:01:17.033Z,4.25
2022-10-29T20:06:14.581Z,3.50
2022-10-29T20:11:11.228Z,3.22
2022-10-29T20:16:18.642Z,4.22
2022-10-29T20:21:15.698Z,4.43
2022-10-29T20:26:12.555Z,3.27
2022-10-29T20:31:18.222Z,3.90
2022-10-29T20:36:14.626Z,3.35
2022-10-29T20:41:11.028Z,3.25
2022-10-29T20:46:07.349Z,3.22
2022-10-29T20:51:04.298Z,4.63
2022-10-29T20:56:00.604Z,3.63
2022-10-29T21:01:05.278Z,3.70
2022-10-29T21:06:07.610Z,3.60
2022-10-29T21:11:08.629Z,3.28
2022-10-29T21:16:19.692Z,3.42
2022-10-29T21:21:16.817Z,3.85
2022-10-29T21:26:16.257Z,3.63
2022-10-29T21:31:12.779Z,3.88
2022-10-29T21:36:12.943Z,3.35
2022-10-29T21:41:09.668Z,4.22
2022-10-29T21:46:06.479Z,4.78
2022-10-29T21:51:06.089Z,4.03
2022-10-29T21:56:05.388Z,3.60
2022-10-29T22:01:10.250Z,4.07
2022-10-29T22:06:10.560Z,4.35
2022-10-29T22:11:07.536Z,3.72
2022-10-29T22:16:05.097Z,3.47
2022-10-29T22:21:07.568Z,3.50
2022-10-29T22:26:03.896Z,4.07
2022-10-29T22:31:01.818Z,3.90
2022-10-29T22:41:12.666Z,4.00
2022-10-29T22:46:10.341Z,4.32
2022-10-29T22:51:26.478Z,3.47
2022-10-29T22:56:28.540Z,3.58
2022-10-29T23:01:27.539Z,3.45
2022-10-29T23:06:24.531Z,4.13
2022-10-29T23:11:23.812Z,4.85
2022-10-29T23:16:21.032Z,3.70
2022-10-29T23:21:18.408Z,3.33
2022-10-29T23:26:15.302Z,3.80
2022-10-29T23:31:20.919Z,4.05
2022-10-29T23:36:18.679Z,3.42
2022-10-29T23:41:15.450Z,4.20
2022-10-29T23:46:11.782Z,4.13
2022-10-29T23:51:08.194Z,4.40
2022-10-29T23:56:04.911Z,4.03
